« Back
NWS Peachtree City, Ga » Text Product » ATL Terminal Aerodrome Forecast


Printer-friendly Version
Current Version              Previous Versions:   1  2  3  4  5  6  7  8  9  

Terminal Aerodrome Forecast

446
FTUS42 KFFC 230100 AAA
TAFATL
TAF AMD
KATL 230157Z 2302/2406 09004KT P6SM VCSH SCT025 BKN080
     FM230400 09005KT P6SM SCT015 BKN080
     FM230900 VRB03KT P6SM BKN006
     FM231400 27004KT P6SM BKN020
     FM231700 25007KT P6SM VCSH SCT035 BKN050 PROB30 2319/2323 4SM
      -TSRA BR BKN035CB
     FM240000 25006KT P6SM SCT040 SCT080=



USA.gov is the U.S. government's official web portal to all federal, state and local government web resources and services.